sensor_id;sensor_type;location;lat;lon;timestamp;P1;durP1;ratioP1;P2;durP2;ratioP2
28086;SDS011;15392;48.912;8.380;2023-08-06T00:00:26;0.77;;;0.40;;
28086;SDS011;15392;48.912;8.380;2023-08-06T00:02:52;0.20;;;0.20;;
28086;SDS011;15392;48.912;8.380;2023-08-06T00:05:18;0.40;;;0.40;;
28086;SDS011;15392;48.912;8.380;2023-08-06T00:07:46;0.20;;;0.20;;
28086;SDS011;15392;48.912;8.380;2023-08-06T00:10:13;0.20;;;0.20;;
28086;SDS011;15392;48.912;8.380;2023-08-06T00:12:40;0.30;;;0.30;;
28086;SDS011;15392;48.912;8.380;2023-08-06T00:15:05;0.30;;;0.30;;
28086;SDS011;15392;48.912;8.380;2023-08-06T00:17:33;0.20;;;0.20;;
28086;SDS011;15392;48.912;8.380;2023-08-06T00:19:59;1.42;;;0.30;;
28086;SDS011;15392;48.912;8.380;2023-08-06T00:22:35;0.30;;;0.30;;
28086;SDS011;15392;48.912;8.380;2023-08-06T00:25:03;0.63;;;0.30;;
28086;SDS011;15392;48.912;8.380;2023-08-06T00:27:30;0.60;;;0.55;;
28086;SDS011;15392;48.912;8.380;2023-08-06T00:29:57;0.30;;;0.30;;
28086;SDS011;15392;48.912;8.380;2023-08-06T00:32:23;0.25;;;0.20;;
28086;SDS011;15392;48.912;8.380;2023-08-06T00:34:49;0.30;;;0.30;;
28086;SDS011;15392;48.912;8.380;2023-08-06T00:37:15;0.40;;;0.40;;
28086;SDS011;15392;48.912;8.380;2023-08-06T00:39:42;0.30;;;0.30;;
28086;SDS011;15392;48.912;8.380;2023-08-06T00:42:08;0.30;;;0.30;;
28086;SDS011;15392;48.912;8.380;2023-08-06T00:44:35;0.30;;;0.30;;
28086;SDS011;15392;48.912;8.380;2023-08-06T00:47:02;0.20;;;0.20;;
28086;SDS011;15392;48.912;8.380;2023-08-06T00:49:28;0.20;;;0.20;;
28086;SDS011;15392;48.912;8.380;2023-08-06T00:51:54;0.30;;;0.30;;
28086;SDS011;15392;48.912;8.380;2023-08-06T00:54:20;0.20;;;0.20;;
28086;SDS011;15392;48.912;8.380;2023-08-06T00:56:46;0.30;;;0.30;;
28086;SDS011;15392;48.912;8.380;2023-08-06T00:59:12;0.30;;;0.30;;
28086;SDS011;15392;48.912;8.380;2023-08-06T01:01:38;0.30;;;0.30;;
28086;SDS011;15392;48.912;8.380;2023-08-06T01:04:04;0.32;;;0.32;;
28086;SDS011;15392;48.912;8.380;2023-08-06T01:06:35;1.02;;;0.30;;
28086;SDS011;15392;48.912;8.380;2023-08-06T01:09:29;0.30;;;0.30;;
28086;SDS011;15392;48.912;8.380;2023-08-06T01:17:36;0.22;;;0.22;;
28086;SDS011;15392;48.912;8.380;2023-08-06T01:20:03;0.43;;;0.38;;
28086;SDS011;15392;48.912;8.380;2023-08-06T01:22:29;0.20;;;0.20;;
28086;SDS011;15392;48.912;8.380;2023-08-06T01:24:54;0.35;;;0.35;;
28086;SDS011;15392;48.912;8.380;2023-08-06T01:27:26;0.30;;;0.30;;
28086;SDS011;15392;48.912;8.380;2023-08-06T01:30:18;0.15;;;0.15;;
28086;SDS011;15392;48.912;8.380;2023-08-06T01:32:53;0.30;;;0.30;;
28086;SDS011;15392;48.912;8.380;2023-08-06T01:35:24;0.30;;;0.30;;
28086;SDS011;15392;48.912;8.380;2023-08-06T01:37:52;0.40;;;0.40;;
28086;SDS011;15392;48.912;8.380;2023-08-06T01:40:18;0.70;;;0.40;;
28086;SDS011;15392;48.912;8.380;2023-08-06T01:42:43;0.30;;;0.30;;
28086;SDS011;15392;48.912;8.380;2023-08-06T01:45:09;0.20;;;0.20;;
28086;SDS011;15392;48.912;8.380;2023-08-06T01:47:35;0.40;;;0.40;;
28086;SDS011;15392;48.912;8.380;2023-08-06T01:50:01;0.22;;;0.20;;
28086;SDS011;15392;48.912;8.380;2023-08-06T01:52:27;0.35;;;0.35;;
28086;SDS011;15392;48.912;8.380;2023-08-06T01:54:54;0.35;;;0.30;;
28086;SDS011;15392;48.912;8.380;2023-08-06T01:57:20;0.20;;;0.20;;
28086;SDS011;15392;48.912;8.380;2023-08-06T01:59:46;0.40;;;0.40;;
28086;SDS011;15392;48.912;8.380;2023-08-06T02:02:11;0.50;;;0.50;;
28086;SDS011;15392;48.912;8.380;2023-08-06T02:04:37;0.30;;;0.30;;
28086;SDS011;15392;48.912;8.380;2023-08-06T02:07:03;0.45;;;0.40;;
28086;SDS011;15392;48.912;8.380;2023-08-06T02:09:29;0.40;;;0.40;;
28086;SDS011;15392;48.912;8.380;2023-08-06T02:11:55;0.30;;;0.30;;
28086;SDS011;15392;48.912;8.380;2023-08-06T02:14:20;0.30;;;0.30;;
28086;SDS011;15392;48.912;8.380;2023-08-06T02:16:46;0.30;;;0.30;;
28086;SDS011;15392;48.912;8.380;2023-08-06T02:19:12;0.28;;;0.28;;
28086;SDS011;15392;48.912;8.380;2023-08-06T02:21:37;0.20;;;0.20;;
28086;SDS011;15392;48.912;8.380;2023-08-06T02:24:03;0.30;;;0.30;;
28086;SDS011;15392;48.912;8.380;2023-08-06T02:26:29;0.32;;;0.32;;
28086;SDS011;15392;48.912;8.380;2023-08-06T02:28:55;0.30;;;0.30;;
28086;SDS011;15392;48.912;8.380;2023-08-06T02:31:20;0.30;;;0.30;;
28086;SDS011;15392;48.912;8.380;2023-08-06T02:33:46;0.40;;;0.40;;
28086;SDS011;15392;48.912;8.380;2023-08-06T02:36:12;0.40;;;0.40;;
28086;SDS011;15392;48.912;8.380;2023-08-06T02:38:37;0.50;;;0.50;;
28086;SDS011;15392;48.912;8.380;2023-08-06T02:41:03;0.75;;;0.50;;
28086;SDS011;15392;48.912;8.380;2023-08-06T02:43:29;0.40;;;0.40;;
28086;SDS011;15392;48.912;8.380;2023-08-06T02:45:59;0.30;;;0.30;;
28086;SDS011;15392;48.912;8.380;2023-08-06T02:48:25;0.35;;;0.35;;
28086;SDS011;15392;48.912;8.380;2023-08-06T02:50:51;0.75;;;0.50;;
28086;SDS011;15392;48.912;8.380;2023-08-06T02:53:17;0.40;;;0.40;;
28086;SDS011;15392;48.912;8.380;2023-08-06T02:55:46;0.40;;;0.40;;
28086;SDS011;15392;48.912;8.380;2023-08-06T03:00:40;0.52;;;0.38;;
28086;SDS011;15392;48.912;8.380;2023-08-06T03:03:05;0.40;;;0.40;;
28086;SDS011;15392;48.912;8.380;2023-08-06T03:05:31;0.40;;;0.40;;
28086;SDS011;15392;48.912;8.380;2023-08-06T03:07:57;0.32;;;0.32;;
28086;SDS011;15392;48.912;8.380;2023-08-06T03:10:22;0.35;;;0.35;;
28086;SDS011;15392;48.912;8.380;2023-08-06T03:12:48;0.22;;;0.20;;
28086;SDS011;15392;48.912;8.380;2023-08-06T03:15:14;0.30;;;0.30;;
28086;SDS011;15392;48.912;8.380;2023-08-06T03:17:40;0.20;;;0.20;;
28086;SDS011;15392;48.912;8.380;2023-08-06T03:20:05;0.20;;;0.20;;
28086;SDS011;15392;48.912;8.380;2023-08-06T03:22:32;0.25;;;0.25;;
28086;SDS011;15392;48.912;8.380;2023-08-06T03:24:57;0.22;;;0.22;;
28086;SDS011;15392;48.912;8.380;2023-08-06T03:27:23;0.20;;;0.20;;
28086;SDS011;15392;48.912;8.380;2023-08-06T03:29:49;0.28;;;0.28;;
28086;SDS011;15392;48.912;8.380;2023-08-06T03:32:15;0.20;;;0.20;;
28086;SDS011;15392;48.912;8.380;2023-08-06T03:34:41;0.43;;;0.43;;
28086;SDS011;15392;48.912;8.380;2023-08-06T03:37:07;0.20;;;0.20;;
28086;SDS011;15392;48.912;8.380;2023-08-06T03:39:32;0.20;;;0.20;;
28086;SDS011;15392;48.912;8.380;2023-08-06T03:41:58;0.20;;;0.20;;
28086;SDS011;15392;48.912;8.380;2023-08-06T03:44:24;0.25;;;0.25;;
28086;SDS011;15392;48.912;8.380;2023-08-06T03:46:50;0.30;;;0.30;;
28086;SDS011;15392;48.912;8.380;2023-08-06T03:49:15;0.28;;;0.13;;
28086;SDS011;15392;48.912;8.380;2023-08-06T03:51:41;0.40;;;0.40;;
28086;SDS011;15392;48.912;8.380;2023-08-06T03:54:07;1.27;;;0.20;;
28086;SDS011;15392;48.912;8.380;2023-08-06T03:56:32;0.30;;;0.30;;
28086;SDS011;15392;48.912;8.380;2023-08-06T03:58:58;0.25;;;0.25;;
28086;SDS011;15392;48.912;8.380;2023-08-06T04:01:24;0.20;;;0.20;;
28086;SDS011;15392;48.912;8.380;2023-08-06T04:03:49;0.10;;;0.10;;
28086;SDS011;15392;48.912;8.380;2023-08-06T04:06:15;0.20;;;0.20;;
28086;SDS011;15392;48.912;8.380;2023-08-06T04:08:41;0.20;;;0.20;;
28086;SDS011;15392;48.912;8.380;2023-08-06T04:11:06;0.10;;;0.10;;
28086;SDS011;15392;48.912;8.380;2023-08-06T04:13:33;0.35;;;0.30;;
28086;SDS011;15392;48.912;8.380;2023-08-06T04:16:02;0.30;;;0.28;;
28086;SDS011;15392;48.912;8.380;2023-08-06T04:18:28;0.25;;;0.25;;
28086;SDS011;15392;48.912;8.380;2023-08-06T04:20:54;0.20;;;0.20;;
28086;SDS011;15392;48.912;8.380;2023-08-06T04:23:22;0.20;;;0.20;;
28086;SDS011;15392;48.912;8.380;2023-08-06T04:25:48;0.30;;;0.30;;
28086;SDS011;15392;48.912;8.380;2023-08-06T04:28:14;0.30;;;0.30;;
28086;SDS011;15392;48.912;8.380;2023-08-06T04:30:40;0.20;;;0.20;;
28086;SDS011;15392;48.912;8.380;2023-08-06T04:33:06;0.10;;;0.10;;
28086;SDS011;15392;48.912;8.380;2023-08-06T04:35:31;0.30;;;0.30;;
28086;SDS011;15392;48.912;8.380;2023-08-06T04:37:57;0.08;;;0.08;;
28086;SDS011;15392;48.912;8.380;2023-08-06T04:40:23;0.20;;;0.20;;
28086;SDS011;15392;48.912;8.380;2023-08-06T04:42:49;0.20;;;0.20;;
28086;SDS011;15392;48.912;8.380;2023-08-06T04:45:14;0.30;;;0.30;;
28086;SDS011;15392;48.912;8.380;2023-08-06T04:47:40;0.65;;;0.20;;
28086;SDS011;15392;48.912;8.380;2023-08-06T04:50:06;0.28;;;0.28;;
28086;SDS011;15392;48.912;8.380;2023-08-06T04:52:32;0.40;;;0.20;;
28086;SDS011;15392;48.912;8.380;2023-08-06T04:54:57;0.20;;;0.20;;
28086;SDS011;15392;48.912;8.380;2023-08-06T04:57:23;0.20;;;0.20;;
28086;SDS011;15392;48.912;8.380;2023-08-06T04:59:49;0.20;;;0.20;;
28086;SDS011;15392;48.912;8.380;2023-08-06T05:02:15;0.22;;;0.20;;
28086;SDS011;15392;48.912;8.380;2023-08-06T05:04:41;0.22;;;0.22;;
28086;SDS011;15392;48.912;8.380;2023-08-06T05:07:06;0.30;;;0.30;;
28086;SDS011;15392;48.912;8.380;2023-08-06T05:09:32;0.20;;;0.20;;
28086;SDS011;15392;48.912;8.380;2023-08-06T05:12:00;0.47;;;0.30;;
28086;SDS011;15392;48.912;8.380;2023-08-06T05:14:28;0.55;;;0.20;;
28086;SDS011;15392;48.912;8.380;2023-08-06T05:16:54;0.20;;;0.20;;
28086;SDS011;15392;48.912;8.380;2023-08-06T05:19:20;0.30;;;0.20;;
28086;SDS011;15392;48.912;8.380;2023-08-06T05:21:45;0.47;;;0.22;;
28086;SDS011;15392;48.912;8.380;2023-08-06T05:24:11;0.20;;;0.20;;
28086;SDS011;15392;48.912;8.380;2023-08-06T05:26:37;0.10;;;0.10;;
28086;SDS011;15392;48.912;8.380;2023-08-06T05:29:03;0.73;;;0.30;;
28086;SDS011;15392;48.912;8.380;2023-08-06T05:31:28;0.10;;;0.10;;
28086;SDS011;15392;48.912;8.380;2023-08-06T05:33:54;0.10;;;0.10;;
28086;SDS011;15392;48.912;8.380;2023-08-06T05:36:20;0.30;;;0.20;;
28086;SDS011;15392;48.912;8.380;2023-08-06T05:38:46;0.20;;;0.10;;
28086;SDS011;15392;48.912;8.380;2023-08-06T05:41:12;0.13;;;0.10;;
28086;SDS011;15392;48.912;8.380;2023-08-06T05:43:38;0.10;;;0.10;;
28086;SDS011;15392;48.912;8.380;2023-08-06T05:46:04;0.20;;;0.17;;
28086;SDS011;15392;48.912;8.380;2023-08-06T05:48:29;0.30;;;0.30;;
28086;SDS011;15392;48.912;8.380;2023-08-06T05:50:56;0.10;;;0.10;;
28086;SDS011;15392;48.912;8.380;2023-08-06T05:53:23;0.40;;;0.10;;
28086;SDS011;15392;48.912;8.380;2023-08-06T05:55:49;0.10;;;0.10;;
28086;SDS011;15392;48.912;8.380;2023-08-06T05:58:15;0.10;;;0.10;;
28086;SDS011;15392;48.912;8.380;2023-08-06T06:00:41;0.10;;;0.10;;
28086;SDS011;15392;48.912;8.380;2023-08-06T06:03:07;0.10;;;0.10;;
28086;SDS011;15392;48.912;8.380;2023-08-06T06:05:33;0.00;;;0.00;;
28086;SDS011;15392;48.912;8.380;2023-08-06T06:07:59;0.10;;;0.08;;
28086;SDS011;15392;48.912;8.380;2023-08-06T06:10:24;0.10;;;0.10;;
28086;SDS011;15392;48.912;8.380;2023-08-06T06:12:50;0.10;;;0.00;;
28086;SDS011;15392;48.912;8.380;2023-08-06T06:15:16;0.10;;;0.10;;
28086;SDS011;15392;48.912;8.380;2023-08-06T06:17:41;0.00;;;0.00;;
28086;SDS011;15392;48.912;8.380;2023-08-06T06:20:07;0.10;;;0.00;;
28086;SDS011;15392;48.912;8.380;2023-08-06T06:22:33;0.20;;;0.13;;
28086;SDS011;15392;48.912;8.380;2023-08-06T06:24:59;0.00;;;0.00;;
28086;SDS011;15392;48.912;8.380;2023-08-06T06:27:25;0.10;;;0.10;;
28086;SDS011;15392;48.912;8.380;2023-08-06T06:29:50;0.10;;;0.10;;
28086;SDS011;15392;48.912;8.380;2023-08-06T06:32:17;0.00;;;0.00;;
28086;SDS011;15392;48.912;8.380;2023-08-06T06:34:43;0.08;;;0.08;;
28086;SDS011;15392;48.912;8.380;2023-08-06T06:37:08;0.00;;;0.00;;
28086;SDS011;15392;48.912;8.380;2023-08-06T06:39:34;0.10;;;0.10;;
28086;SDS011;15392;48.912;8.380;2023-08-06T06:42:00;0.10;;;0.10;;
28086;SDS011;15392;48.912;8.380;2023-08-06T06:44:25;0.00;;;0.00;;
28086;SDS011;15392;48.912;8.380;2023-08-06T06:46:51;0.00;;;0.00;;
28086;SDS011;15392;48.912;8.380;2023-08-06T06:49:17;0.00;;;0.00;;
28086;SDS011;15392;48.912;8.380;2023-08-06T06:51:43;0.00;;;0.00;;
28086;SDS011;15392;48.912;8.380;2023-08-06T06:54:08;0.00;;;0.00;;
28086;SDS011;15392;48.912;8.380;2023-08-06T06:56:34;0.00;;;0.00;;
28086;SDS011;15392;48.912;8.380;2023-08-06T06:59:00;0.00;;;0.00;;
28086;SDS011;15392;48.912;8.380;2023-08-06T07:01:25;0.05;;;0.05;;
28086;SDS011;15392;48.912;8.380;2023-08-06T07:03:51;0.00;;;0.00;;
28086;SDS011;15392;48.912;8.380;2023-08-06T07:06:17;0.00;;;0.00;;
28086;SDS011;15392;48.912;8.380;2023-08-06T07:08:43;0.00;;;0.00;;
28086;SDS011;15392;48.912;8.380;2023-08-06T07:11:10;0.00;;;0.00;;
28086;SDS011;15392;48.912;8.380;2023-08-06T07:13:35;0.10;;;0.10;;
28086;SDS011;15392;48.912;8.380;2023-08-06T07:16:01;0.00;;;0.00;;
28086;SDS011;15392;48.912;8.380;2023-08-06T07:18:28;0.30;;;0.20;;
28086;SDS011;15392;48.912;8.380;2023-08-06T07:20:54;0.17;;;0.13;;
28086;SDS011;15392;48.912;8.380;2023-08-06T07:23:21;0.08;;;0.08;;
28086;SDS011;15392;48.912;8.380;2023-08-06T07:25:50;0.10;;;0.10;;
28086;SDS011;15392;48.912;8.380;2023-08-06T07:28:16;0.00;;;0.00;;
28086;SDS011;15392;48.912;8.380;2023-08-06T07:30:43;0.10;;;0.10;;
28086;SDS011;15392;48.912;8.380;2023-08-06T07:33:10;0.00;;;0.00;;
28086;SDS011;15392;48.912;8.380;2023-08-06T07:35:37;0.00;;;0.00;;
28086;SDS011;15392;48.912;8.380;2023-08-06T07:38:03;0.00;;;0.00;;
28086;SDS011;15392;48.912;8.380;2023-08-06T07:40:29;0.10;;;0.00;;
28086;SDS011;15392;48.912;8.380;2023-08-06T07:42:55;0.00;;;0.00;;
28086;SDS011;15392;48.912;8.380;2023-08-06T07:45:20;0.00;;;0.00;;
28086;SDS011;15392;48.912;8.380;2023-08-06T07:47:46;0.10;;;0.00;;
28086;SDS011;15392;48.912;8.380;2023-08-06T07:50:12;0.00;;;0.00;;
28086;SDS011;15392;48.912;8.380;2023-08-06T07:52:39;0.05;;;0.05;;
28086;SDS011;15392;48.912;8.380;2023-08-06T07:55:05;0.00;;;0.00;;
28086;SDS011;15392;48.912;8.380;2023-08-06T07:57:31;0.00;;;0.00;;
28086;SDS011;15392;48.912;8.380;2023-08-06T07:59:57;0.10;;;0.10;;
28086;SDS011;15392;48.912;8.380;2023-08-06T08:02:23;0.00;;;0.00;;
28086;SDS011;15392;48.912;8.380;2023-08-06T08:04:49;0.00;;;0.00;;
28086;SDS011;15392;48.912;8.380;2023-08-06T08:07:15;0.00;;;0.00;;
28086;SDS011;15392;48.912;8.380;2023-08-06T08:09:40;0.00;;;0.00;;
28086;SDS011;15392;48.912;8.380;2023-08-06T08:12:06;0.00;;;0.00;;
28086;SDS011;15392;48.912;8.380;2023-08-06T08:14:32;0.03;;;0.00;;
28086;SDS011;15392;48.912;8.380;2023-08-06T08:17:02;0.07;;;0.00;;
28086;SDS011;15392;48.912;8.380;2023-08-06T08:19:29;0.10;;;0.00;;
28086;SDS011;15392;48.912;8.380;2023-08-06T08:21:55;0.05;;;0.00;;
28086;SDS011;15392;48.912;8.380;2023-08-06T08:24:21;0.00;;;0.00;;
28086;SDS011;15392;48.912;8.380;2023-08-06T08:26:49;0.10;;;0.10;;
28086;SDS011;15392;48.912;8.380;2023-08-06T08:29:19;0.30;;;0.13;;
28086;SDS011;15392;48.912;8.380;2023-08-06T08:31:46;0.17;;;0.10;;
28086;SDS011;15392;48.912;8.380;2023-08-06T08:34:14;0.10;;;0.10;;
28086;SDS011;15392;48.912;8.380;2023-08-06T08:36:40;0.05;;;0.00;;
28086;SDS011;15392;48.912;8.380;2023-08-06T08:39:06;0.00;;;0.00;;
28086;SDS011;15392;48.912;8.380;2023-08-06T08:41:33;0.00;;;0.00;;
28086;SDS011;15392;48.912;8.380;2023-08-06T08:44:02;0.10;;;0.10;;
28086;SDS011;15392;48.912;8.380;2023-08-06T08:46:33;0.00;;;0.00;;
28086;SDS011;15392;48.912;8.380;2023-08-06T08:49:03;0.20;;;0.10;;
28086;SDS011;15392;48.912;8.380;2023-08-06T08:51:29;0.08;;;0.08;;
28086;SDS011;15392;48.912;8.380;2023-08-06T08:53:56;0.00;;;0.00;;
28086;SDS011;15392;48.912;8.380;2023-08-06T08:56:22;0.03;;;0.03;;
28086;SDS011;15392;48.912;8.380;2023-08-06T08:58:49;0.43;;;0.10;;
28086;SDS011;15392;48.912;8.380;2023-08-06T09:01:16;0.10;;;0.10;;
28086;SDS011;15392;48.912;8.380;2023-08-06T09:03:43;0.20;;;0.10;;
28086;SDS011;15392;48.912;8.380;2023-08-06T09:06:10;0.00;;;0.00;;
28086;SDS011;15392;48.912;8.380;2023-08-06T09:08:39;0.00;;;0.00;;
28086;SDS011;15392;48.912;8.380;2023-08-06T09:11:21;0.08;;;0.00;;
28086;SDS011;15392;48.912;8.380;2023-08-06T09:13:47;0.10;;;0.10;;
28086;SDS011;15392;48.912;8.380;2023-08-06T09:16:13;0.00;;;0.00;;
28086;SDS011;15392;48.912;8.380;2023-08-06T09:18:39;0.00;;;0.00;;
28086;SDS011;15392;48.912;8.380;2023-08-06T09:21:05;0.13;;;0.10;;
28086;SDS011;15392;48.912;8.380;2023-08-06T09:23:39;0.10;;;0.10;;
28086;SDS011;15392;48.912;8.380;2023-08-06T09:26:04;0.10;;;0.10;;
28086;SDS011;15392;48.912;8.380;2023-08-06T09:28:36;0.00;;;0.00;;
28086;SDS011;15392;48.912;8.380;2023-08-06T09:31:08;0.00;;;0.00;;
28086;SDS011;15392;48.912;8.380;2023-08-06T09:33:35;0.05;;;0.05;;
28086;SDS011;15392;48.912;8.380;2023-08-06T09:36:09;0.10;;;0.00;;
28086;SDS011;15392;48.912;8.380;2023-08-06T09:38:39;0.00;;;0.00;;
28086;SDS011;15392;48.912;8.380;2023-08-06T09:41:06;0.03;;;0.03;;
28086;SDS011;15392;48.912;8.380;2023-08-06T09:43:42;0.00;;;0.00;;
28086;SDS011;15392;48.912;8.380;2023-08-06T09:46:12;0.10;;;0.10;;
28086;SDS011;15392;48.912;8.380;2023-08-06T09:48:44;0.13;;;0.00;;
28086;SDS011;15392;48.912;8.380;2023-08-06T09:51:11;0.08;;;0.08;;
28086;SDS011;15392;48.912;8.380;2023-08-06T09:53:39;0.10;;;0.10;;
28086;SDS011;15392;48.912;8.380;2023-08-06T09:56:06;0.10;;;0.00;;
28086;SDS011;15392;48.912;8.380;2023-08-06T09:58:32;0.00;;;0.00;;
28086;SDS011;15392;48.912;8.380;2023-08-06T10:00:58;0.10;;;0.10;;
28086;SDS011;15392;48.912;8.380;2023-08-06T10:03:26;0.00;;;0.00;;
28086;SDS011;15392;48.912;8.380;2023-08-06T10:05:53;0.00;;;0.00;;
28086;SDS011;15392;48.912;8.380;2023-08-06T10:08:21;0.00;;;0.00;;
28086;SDS011;15392;48.912;8.380;2023-08-06T10:10:48;0.00;;;0.00;;
28086;SDS011;15392;48.912;8.380;2023-08-06T10:13:13;0.00;;;0.00;;
28086;SDS011;15392;48.912;8.380;2023-08-06T10:15:42;0.00;;;0.00;;
28086;SDS011;15392;48.912;8.380;2023-08-06T10:18:08;0.10;;;0.10;;
28086;SDS011;15392;48.912;8.380;2023-08-06T10:20:34;0.08;;;0.08;;
28086;SDS011;15392;48.912;8.380;2023-08-06T10:23:04;1.73;;;0.10;;
28086;SDS011;15392;48.912;8.380;2023-08-06T10:25:39;0.10;;;0.10;;
28086;SDS011;15392;48.912;8.380;2023-08-06T10:28:10;0.00;;;0.00;;
28086;SDS011;15392;48.912;8.380;2023-08-06T10:30:41;0.00;;;0.00;;
28086;SDS011;15392;48.912;8.380;2023-08-06T10:35:46;0.05;;;0.05;;
28086;SDS011;15392;48.912;8.380;2023-08-06T10:38:18;0.10;;;0.10;;
28086;SDS011;15392;48.912;8.380;2023-08-06T10:43:35;0.10;;;0.10;;
28086;SDS011;15392;48.912;8.380;2023-08-06T10:46:11;0.10;;;0.10;;
28086;SDS011;15392;48.912;8.380;2023-08-06T10:48:47;0.10;;;0.10;;
28086;SDS011;15392;48.912;8.380;2023-08-06T10:51:14;0.10;;;0.10;;
28086;SDS011;15392;48.912;8.380;2023-08-06T10:53:46;0.20;;;0.20;;
28086;SDS011;15392;48.912;8.380;2023-08-06T10:56:15;0.20;;;0.20;;
28086;SDS011;15392;48.912;8.380;2023-08-06T10:58:47;0.20;;;0.20;;
28086;SDS011;15392;48.912;8.380;2023-08-06T11:01:14;0.30;;;0.30;;
28086;SDS011;15392;48.912;8.380;2023-08-06T11:03:41;0.25;;;0.25;;
28086;SDS011;15392;48.912;8.380;2023-08-06T11:06:09;0.10;;;0.10;;
28086;SDS011;15392;48.912;8.380;2023-08-06T11:08:36;0.20;;;0.20;;
28086;SDS011;15392;48.912;8.380;2023-08-06T11:13:42;0.20;;;0.20;;
28086;SDS011;15392;48.912;8.380;2023-08-06T11:16:11;0.45;;;0.38;;
28086;SDS011;15392;48.912;8.380;2023-08-06T11:18:42;0.40;;;0.40;;
28086;SDS011;15392;48.912;8.380;2023-08-06T11:21:08;0.20;;;0.20;;
28086;SDS011;15392;48.912;8.380;2023-08-06T11:23:34;0.50;;;0.47;;
28086;SDS011;15392;48.912;8.380;2023-08-06T11:26:01;0.40;;;0.40;;
28086;SDS011;15392;48.912;8.380;2023-08-06T11:28:26;0.63;;;0.63;;
28086;SDS011;15392;48.912;8.380;2023-08-06T11:30:53;0.30;;;0.30;;
28086;SDS011;15392;48.912;8.380;2023-08-06T11:33:21;0.38;;;0.38;;
28086;SDS011;15392;48.912;8.380;2023-08-06T11:35:57;0.60;;;0.60;;
28086;SDS011;15392;48.912;8.380;2023-08-06T11:38:28;0.50;;;0.50;;
28086;SDS011;15392;48.912;8.380;2023-08-06T11:40:54;0.40;;;0.40;;
28086;SDS011;15392;48.912;8.380;2023-08-06T11:43:20;0.30;;;0.30;;
28086;SDS011;15392;48.912;8.380;2023-08-06T11:45:47;0.40;;;0.40;;
28086;SDS011;15392;48.912;8.380;2023-08-06T11:48:14;0.50;;;0.50;;
28086;SDS011;15392;48.912;8.380;2023-08-06T11:50:41;0.40;;;0.40;;
28086;SDS011;15392;48.912;8.380;2023-08-06T11:53:06;0.40;;;0.40;;
28086;SDS011;15392;48.912;8.380;2023-08-06T11:55:32;0.40;;;0.40;;
28086;SDS011;15392;48.912;8.380;2023-08-06T11:58:02;0.30;;;0.30;;
28086;SDS011;15392;48.912;8.380;2023-08-06T12:00:32;0.32;;;0.32;;
28086;SDS011;15392;48.912;8.380;2023-08-06T12:02:58;1.15;;;0.40;;
28086;SDS011;15392;48.912;8.380;2023-08-06T12:05:29;0.30;;;0.30;;
28086;SDS011;15392;48.912;8.380;2023-08-06T12:07:57;0.30;;;0.30;;
28086;SDS011;15392;48.912;8.380;2023-08-06T12:10:25;0.25;;;0.25;;
28086;SDS011;15392;48.912;8.380;2023-08-06T12:12:53;0.35;;;0.35;;
28086;SDS011;15392;48.912;8.380;2023-08-06T12:15:19;0.30;;;0.30;;
28086;SDS011;15392;48.912;8.380;2023-08-06T12:17:45;0.40;;;0.40;;
28086;SDS011;15392;48.912;8.380;2023-08-06T12:20:11;0.40;;;0.30;;
28086;SDS011;15392;48.912;8.380;2023-08-06T12:22:37;0.30;;;0.30;;
28086;SDS011;15392;48.912;8.380;2023-08-06T12:27:40;1.00;;;0.10;;
28086;SDS011;15392;48.912;8.380;2023-08-06T12:30:09;0.30;;;0.30;;
28086;SDS011;15392;48.912;8.380;2023-08-06T12:32:36;0.30;;;0.30;;
28086;SDS011;15392;48.912;8.380;2023-08-06T12:35:03;0.30;;;0.30;;
28086;SDS011;15392;48.912;8.380;2023-08-06T12:37:34;0.20;;;0.20;;
28086;SDS011;15392;48.912;8.380;2023-08-06T12:40:01;0.20;;;0.20;;
28086;SDS011;15392;48.912;8.380;2023-08-06T12:42:27;0.20;;;0.20;;
28086;SDS011;15392;48.912;8.380;2023-08-06T12:44:53;2.13;;;0.20;;
28086;SDS011;15392;48.912;8.380;2023-08-06T12:47:19;0.20;;;0.20;;
28086;SDS011;15392;48.912;8.380;2023-08-06T12:49:45;0.10;;;0.10;;
28086;SDS011;15392;48.912;8.380;2023-08-06T12:52:10;0.20;;;0.20;;
28086;SDS011;15392;48.912;8.380;2023-08-06T12:54:38;0.20;;;0.20;;
28086;SDS011;15392;48.912;8.380;2023-08-06T12:57:04;0.17;;;0.17;;
28086;SDS011;15392;48.912;8.380;2023-08-06T12:59:30;0.00;;;0.00;;
28086;SDS011;15392;48.912;8.380;2023-08-06T13:02:00;0.10;;;0.10;;
28086;SDS011;15392;48.912;8.380;2023-08-06T13:04:26;0.10;;;0.10;;
28086;SDS011;15392;48.912;8.380;2023-08-06T13:06:52;0.17;;;0.17;;
28086;SDS011;15392;48.912;8.380;2023-08-06T13:09:20;0.70;;;0.00;;
28086;SDS011;15392;48.912;8.380;2023-08-06T13:11:46;0.10;;;0.10;;
28086;SDS011;15392;48.912;8.380;2023-08-06T13:14:15;0.00;;;0.00;;
28086;SDS011;15392;48.912;8.380;2023-08-06T13:16:42;0.08;;;0.08;;
28086;SDS011;15392;48.912;8.380;2023-08-06T13:19:09;0.00;;;0.00;;
28086;SDS011;15392;48.912;8.380;2023-08-06T13:24:24;0.20;;;0.20;;
28086;SDS011;15392;48.912;8.380;2023-08-06T13:26:52;0.10;;;0.10;;
28086;SDS011;15392;48.912;8.380;2023-08-06T13:29:18;0.10;;;0.10;;
28086;SDS011;15392;48.912;8.380;2023-08-06T13:31:44;0.10;;;0.10;;
28086;SDS011;15392;48.912;8.380;2023-08-06T13:34:10;0.20;;;0.10;;
28086;SDS011;15392;48.912;8.380;2023-08-06T13:36:36;0.10;;;0.10;;
28086;SDS011;15392;48.912;8.380;2023-08-06T13:39:01;0.10;;;0.10;;
28086;SDS011;15392;48.912;8.380;2023-08-06T13:41:28;0.20;;;0.13;;
28086;SDS011;15392;48.912;8.380;2023-08-06T13:43:54;0.10;;;0.10;;
28086;SDS011;15392;48.912;8.380;2023-08-06T13:46:20;0.20;;;0.20;;
28086;SDS011;15392;48.912;8.380;2023-08-06T13:48:46;0.20;;;0.10;;
28086;SDS011;15392;48.912;8.380;2023-08-06T13:53:42;0.20;;;0.20;;
28086;SDS011;15392;48.912;8.380;2023-08-06T13:56:08;0.10;;;0.10;;
28086;SDS011;15392;48.912;8.380;2023-08-06T13:58:35;0.10;;;0.10;;
28086;SDS011;15392;48.912;8.380;2023-08-06T14:01:01;0.00;;;0.00;;
28086;SDS011;15392;48.912;8.380;2023-08-06T14:03:27;0.10;;;0.10;;
28086;SDS011;15392;48.912;8.380;2023-08-06T14:05:52;0.00;;;0.00;;
28086;SDS011;15392;48.912;8.380;2023-08-06T14:08:21;0.10;;;0.10;;
28086;SDS011;15392;48.912;8.380;2023-08-06T14:10:53;0.25;;;0.10;;
28086;SDS011;15392;48.912;8.380;2023-08-06T14:13:19;0.10;;;0.10;;
28086;SDS011;15392;48.912;8.380;2023-08-06T14:15:46;0.05;;;0.05;;
28086;SDS011;15392;48.912;8.380;2023-08-06T14:18:16;0.17;;;0.17;;
28086;SDS011;15392;48.912;8.380;2023-08-06T14:20:42;0.10;;;0.10;;
28086;SDS011;15392;48.912;8.380;2023-08-06T14:23:09;0.10;;;0.10;;
28086;SDS011;15392;48.912;8.380;2023-08-06T14:25:35;0.20;;;0.20;;
28086;SDS011;15392;48.912;8.380;2023-08-06T14:28:03;0.10;;;0.10;;
28086;SDS011;15392;48.912;8.380;2023-08-06T14:30:29;0.10;;;0.10;;
28086;SDS011;15392;48.912;8.380;2023-08-06T14:32:54;0.20;;;0.20;;
28086;SDS011;15392;48.912;8.380;2023-08-06T14:35:20;0.10;;;0.10;;
28086;SDS011;15392;48.912;8.380;2023-08-06T14:37:46;0.10;;;0.05;;
28086;SDS011;15392;48.912;8.380;2023-08-06T14:40:11;0.17;;;0.17;;
28086;SDS011;15392;48.912;8.380;2023-08-06T14:42:37;0.00;;;0.00;;
28086;SDS011;15392;48.912;8.380;2023-08-06T14:45:03;0.10;;;0.10;;
28086;SDS011;15392;48.912;8.380;2023-08-06T14:47:30;0.65;;;0.47;;
28086;SDS011;15392;48.912;8.380;2023-08-06T14:49:56;0.10;;;0.10;;
28086;SDS011;15392;48.912;8.380;2023-08-06T14:52:21;0.10;;;0.10;;
28086;SDS011;15392;48.912;8.380;2023-08-06T14:54:47;0.13;;;0.10;;
28086;SDS011;15392;48.912;8.380;2023-08-06T14:57:13;0.03;;;0.03;;
28086;SDS011;15392;48.912;8.380;2023-08-06T14:59:39;0.10;;;0.10;;
28086;SDS011;15392;48.912;8.380;2023-08-06T15:02:05;0.03;;;0.03;;
28086;SDS011;15392;48.912;8.380;2023-08-06T15:04:31;0.20;;;0.20;;
28086;SDS011;15392;48.912;8.380;2023-08-06T15:06:57;0.15;;;0.10;;
28086;SDS011;15392;48.912;8.380;2023-08-06T15:09:23;0.10;;;0.10;;